Accueil
METAR-TAF:

METAR-TAF

Aéroports :

Farnborough, Angleterre

latitude: 51-17N, longitude: 000-46W, altitude: 65 m

Observation

Le bulletin a été fait il y a 29 minutes, à 18:50 UTC
Vent 9 kt de est
Température 4°C
Humidité 75%
Pression 1008 hPa
Visibilité 10 km ou plus

METAR: EGLF 201850Z AUTO 09009KT 9999 OVC024/// 04/00 Q1008

Heure: 19:19 (19:19 UTC)

Prévision

Le bulletin a été fait il y a 2 heures et 21 minutes, à 16:58 UTC
Prévision valable du 20 à 18 UTC au 20 à 23 UTC
Vent 8 kt de est/sud-est
Visibilité 10 km ou plus
Nuages épars à une hauteur de 3000 ft
Temporairement
du 20 à 21 UTC au 20 à 23 UTC
Nuages fragmentés à une hauteur de 1200 ft

TAF: EGLF 201658Z 2018/2023 11008KT 9999 SCT030 TEMPO 2021/2023 BKN012

Observations et prévisions météorologiques de plus de 4000 aéroports (messages METAR et TAF).

Les stations disponibles sont représentées par des disques jaunes et rouges sur la carte.

Passer la souris dessus pour voir le nom de la station.

Cliquer dessus pour voir les observations et prévisions météorologiques.

Pour changer de carte: cliquez sur les boutons verts avec une croix noire pour zoomer, sur le bouton vert avec un tiret pour effectuer un zoom arrière, ou sur les flèches vertes pour les cartes adjacentes.


METAR-TAF: